createdAt,value
2023-11-14T00:01:22.787Z,10.86
2023-11-14T00:03:52.299Z,10.85
2023-11-14T00:06:22.691Z,10.85
2023-11-14T00:08:52.114Z,10.86
2023-11-14T00:11:22.980Z,10.87
2023-11-14T00:13:52.833Z,10.88
2023-11-14T00:16:22.838Z,10.88
2023-11-14T00:18:52.693Z,10.86
2023-11-14T00:21:22.161Z,10.86
2023-11-14T00:23:52.162Z,10.86
2023-11-14T00:26:23.769Z,10.85
2023-11-14T00:28:54.534Z,10.89
2023-11-14T00:31:25.632Z,10.87
2023-11-14T00:33:55.741Z,10.87
2023-11-14T00:36:25.771Z,10.86
2023-11-14T00:39:01.089Z,10.89
2023-11-14T00:41:30.564Z,10.92
2023-11-14T00:43:59.975Z,10.87
2023-11-14T00:46:35.376Z,10.82
2023-11-14T00:49:08.329Z,10.84
2023-11-14T00:51:37.769Z,10.83
2023-11-14T00:54:07.240Z,10.85
2023-11-14T00:56:36.619Z,10.83
2023-11-14T00:59:06.659Z,10.82
2023-11-14T01:01:36.165Z,10.85
2023-11-14T01:04:05.777Z,10.84
2023-11-14T01:06:35.685Z,10.87
2023-11-14T01:09:05.166Z,10.91
2023-11-14T01:11:34.577Z,10.90
2023-11-14T01:14:04.137Z,10.93
2023-11-14T01:16:33.801Z,10.93
2023-11-14T01:19:03.607Z,10.94
2023-11-14T01:21:33.903Z,10.96
2023-11-14T01:24:03.497Z,10.97
2023-11-14T01:26:36.994Z,10.97
2023-11-14T01:29:06.644Z,11.02
2023-11-14T01:31:36.172Z,11.01
2023-11-14T01:34:05.652Z,10.99
2023-11-14T01:36:37.164Z,10.98
2023-11-14T01:39:08.404Z,10.97
2023-11-14T01:41:37.874Z,10.94
2023-11-14T01:44:07.373Z,10.89
2023-11-14T01:46:37.945Z,10.89
2023-11-14T01:49:07.864Z,10.87
2023-11-14T01:51:37.644Z,10.89
2023-11-14T01:54:09.252Z,10.88
2023-11-14T01:56:39.796Z,10.87
2023-11-14T01:59:10.083Z,10.87
2023-11-14T02:01:40.777Z,10.85
2023-11-14T02:04:23.611Z,10.84
2023-11-14T02:06:53.280Z,10.86
2023-11-14T02:09:23.215Z,10.80
2023-11-14T02:11:52.791Z,10.75
2023-11-14T02:14:22.567Z,10.74
2023-11-14T02:16:57.540Z,10.75
2023-11-14T02:19:28.236Z,10.78
2023-11-14T02:21:57.731Z,10.80
2023-11-14T02:24:28.900Z,10.82
2023-11-14T02:26:59.596Z,10.83
2023-11-14T02:29:30.282Z,10.85
2023-11-14T02:32:00.103Z,10.85
2023-11-14T02:34:29.933Z,10.85
2023-11-14T02:36:59.504Z,10.87
2023-11-14T02:39:30.134Z,10.87
2023-11-14T02:42:00.146Z,10.88
2023-11-14T02:44:29.824Z,10.89
2023-11-14T02:47:00.052Z,10.90
2023-11-14T02:49:51.108Z,10.90
2023-11-14T02:52:21.266Z,11.05
2023-11-14T02:54:52.062Z,11.03
2023-11-14T02:57:21.531Z,11.02
2023-11-14T02:59:50.989Z,10.99
2023-11-14T03:02:20.380Z,11.01
2023-11-14T03:04:50.469Z,10.98
2023-11-14T03:07:20.681Z,11.00
2023-11-14T03:09:50.073Z,11.01
2023-11-14T03:12:19.572Z,10.99
2023-11-14T03:14:49.077Z,10.96
2023-11-14T03:17:20.044Z,10.96
2023-11-14T03:19:49.519Z,10.94
2023-11-14T03:22:18.938Z,10.91
2023-11-14T03:24:48.767Z,10.90
2023-11-14T03:27:18.320Z,10.89
2023-11-14T03:29:47.777Z,10.85
2023-11-14T03:32:20.105Z,10.82
2023-11-14T03:34:50.301Z,10.77
2023-11-14T03:37:19.725Z,10.74
2023-11-14T03:39:49.908Z,10.71
2023-11-14T03:42:19.778Z,10.68
2023-11-14T03:44:49.292Z,10.64
2023-11-14T03:47:18.646Z,10.59
2023-11-14T03:49:48.194Z,10.53
2023-11-14T03:52:17.607Z,10.47
2023-11-14T03:54:47.465Z,10.37
2023-11-14T03:57:16.938Z,10.29
2023-11-14T03:59:46.385Z,10.21
2023-11-14T04:02:16.174Z,10.17
2023-11-14T04:04:45.862Z,10.16
2023-11-14T04:07:16.237Z,10.12
2023-11-14T04:09:45.669Z,10.17
2023-11-14T04:12:15.102Z,10.17
2023-11-14T04:14:44.804Z,10.19
2023-11-14T04:17:17.523Z,10.26
2023-11-14T04:19:47.051Z,10.28
2023-11-14T04:22:16.479Z,10.28
2023-11-14T04:24:46.463Z,10.28
2023-11-14T04:27:15.895Z,10.29
2023-11-14T04:29:45.358Z,10.33
2023-11-14T04:32:14.913Z,10.37
2023-11-14T04:34:47.044Z,10.43
2023-11-14T04:37:16.494Z,10.51
2023-11-14T04:39:47.036Z,10.56
2023-11-14T04:42:16.520Z,10.61
2023-11-14T04:44:46.059Z,10.66
2023-11-14T04:47:15.458Z,10.70
2023-11-14T04:49:46.785Z,10.75
2023-11-14T04:52:18.407Z,10.76
2023-11-14T04:54:48.157Z,10.81
2023-11-14T04:57:18.985Z,10.83
2023-11-14T04:59:49.317Z,10.83
2023-11-14T05:02:18.943Z,10.82
2023-11-14T05:04:48.580Z,10.83
2023-11-14T05:07:17.961Z,10.82
2023-11-14T05:09:47.385Z,10.81
2023-11-14T05:12:16.959Z,10.81
2023-11-14T05:14:49.641Z,10.82
2023-11-14T05:17:19.265Z,10.81
2023-11-14T05:19:49.029Z,10.78
2023-11-14T05:22:18.516Z,10.72
2023-11-14T05:24:48.410Z,10.71
2023-11-14T05:27:17.778Z,10.70
2023-11-14T05:29:47.608Z,10.70
2023-11-14T05:32:17.044Z,10.71
2023-11-14T05:34:46.972Z,10.71
2023-11-14T05:37:16.509Z,10.71
2023-11-14T05:39:46.007Z,10.70
2023-11-14T05:42:15.403Z,10.70
2023-11-14T05:44:45.400Z,10.70
2023-11-14T05:47:15.791Z,10.72
2023-11-14T05:49:45.220Z,10.70
2023-11-14T05:52:14.769Z,10.69
2023-11-14T05:54:44.225Z,10.70
2023-11-14T05:57:13.566Z,10.71
2023-11-14T05:59:43.051Z,10.71
2023-11-14T06:02:12.659Z,10.72
2023-11-14T06:04:42.628Z,10.73
2023-11-14T06:07:12.130Z,10.75
2023-11-14T06:09:41.563Z,10.73
2023-11-14T06:12:11.527Z,10.73
2023-11-14T06:14:41.191Z,10.72
2023-11-14T06:17:10.604Z,10.73
2023-11-14T06:19:40.181Z,10.71
2023-11-14T06:22:10.611Z,10.69
2023-11-14T06:24:40.230Z,10.69
2023-11-14T06:27:09.722Z,10.70
2023-11-14T06:29:42.215Z,10.67
2023-11-14T06:32:13.940Z,10.72
2023-11-14T06:34:43.590Z,10.69
2023-11-14T06:37:13.109Z,10.65
2023-11-14T06:39:42.553Z,10.62
2023-11-14T06:42:12.061Z,10.59
2023-11-14T06:44:45.571Z,10.55
2023-11-14T06:47:16.789Z,10.57
2023-11-14T06:49:46.995Z,10.55
2023-11-14T06:52:16.519Z,10.51
2023-11-14T06:54:46.269Z,10.48
2023-11-14T06:57:15.661Z,10.46
2023-11-14T06:59:45.071Z,10.43
2023-11-14T07:02:14.555Z,10.42
2023-11-14T07:04:45.282Z,10.42
2023-11-14T07:07:14.837Z,10.41
2023-11-14T07:09:45.290Z,10.42
2023-11-14T07:12:14.760Z,10.39
2023-11-14T07:14:44.630Z,10.39
2023-11-14T07:17:14.761Z,10.35
2023-11-14T07:19:44.328Z,10.33
2023-11-14T07:22:14.107Z,10.28
2023-11-14T07:24:44.634Z,10.26
2023-11-14T07:27:16.616Z,10.20
2023-11-14T07:29:47.240Z,10.18
2023-11-14T07:32:16.786Z,10.15
2023-11-14T07:34:47.003Z,10.15
2023-11-14T07:37:16.441Z,10.17
2023-11-14T07:39:45.833Z,10.14
2023-11-14T07:42:15.339Z,10.13
2023-11-14T07:44:45.208Z,10.13
2023-11-14T07:47:20.742Z,10.08
2023-11-14T07:49:51.871Z,10.11
2023-11-14T07:52:21.371Z,10.10
2023-11-14T07:54:54.365Z,10.12
2023-11-14T07:57:23.790Z,10.17
2023-11-14T07:59:53.276Z,10.16
2023-11-14T08:02:22.737Z,10.16
2023-11-14T08:04:53.914Z,10.13
2023-11-14T08:07:23.453Z,10.15
2023-11-14T08:09:53.009Z,10.12
2023-11-14T08:12:22.420Z,10.14
2023-11-14T08:14:52.219Z,10.16
2023-11-14T08:17:21.915Z,10.19
2023-11-14T08:19:51.526Z,10.19
2023-11-14T08:22:21.059Z,10.20
2023-11-14T08:24:50.662Z,10.27
2023-11-14T08:27:22.554Z,10.27
2023-11-14T08:29:52.624Z,10.33
2023-11-14T08:32:22.005Z,10.35
2023-11-14T08:34:51.611Z,10.39
2023-11-14T08:37:23.670Z,10.40
2023-11-14T08:39:54.034Z,10.43
2023-11-14T08:42:23.417Z,10.42
2023-11-14T08:44:54.145Z,10.40
2023-11-14T08:47:24.067Z,10.43
2023-11-14T08:49:53.616Z,10.50
2023-11-14T08:52:24.173Z,10.50
2023-11-14T08:54:54.498Z,10.56
2023-11-14T08:57:23.968Z,10.62
2023-11-14T08:59:53.424Z,10.70
2023-11-14T09:02:23.324Z,10.77
2023-11-14T09:04:53.260Z,10.80
2023-11-14T09:07:22.722Z,10.80
2023-11-14T09:09:52.109Z,10.83
2023-11-14T09:12:21.515Z,10.86
2023-11-14T09:14:54.051Z,10.91
2023-11-14T09:17:23.566Z,10.93
2023-11-14T09:19:54.058Z,10.99
2023-11-14T09:22:26.275Z,11.02
2023-11-14T09:24:56.328Z,11.09
2023-11-14T09:27:26.463Z,11.19
2023-11-14T09:29:56.359Z,11.28
2023-11-14T09:32:25.949Z,11.40
2023-11-14T09:34:56.565Z,11.49
2023-11-14T09:37:26.066Z,11.56
2023-11-14T09:39:55.562Z,11.55
2023-11-14T09:42:25.410Z,11.49
2023-11-14T09:44:55.263Z,11.48
2023-11-14T09:47:25.503Z,11.46
2023-11-14T09:49:54.997Z,11.46
2023-11-14T09:52:25.157Z,11.49
2023-11-14T09:54:55.095Z,11.51
2023-11-14T09:57:25.513Z,11.50
2023-11-14T09:59:56.020Z,11.52
2023-11-14T10:02:28.165Z,11.51
2023-11-14T10:05:03.886Z,11.57
2023-11-14T10:07:40.663Z,11.70
2023-11-14T10:10:11.849Z,11.72
2023-11-14T10:12:42.162Z,11.69
2023-11-14T10:15:11.859Z,11.76
2023-11-14T10:17:49.700Z,11.81
2023-11-14T10:20:24.010Z,11.94
2023-11-14T10:23:05.045Z,12.06
2023-11-14T10:25:38.531Z,12.16
2023-11-14T10:28:08.673Z,12.12
2023-11-14T10:30:47.407Z,12.02
2023-11-14T10:33:17.830Z,12.01
2023-11-14T10:35:49.098Z,11.91
2023-11-14T10:38:21.043Z,11.90
2023-11-14T10:40:53.965Z,11.96
2023-11-14T10:43:36.330Z,12.05
2023-11-14T10:46:15.188Z,12.13
2023-11-14T10:48:45.166Z,12.18
2023-11-14T10:51:20.894Z,12.14
2023-11-14T10:53:52.185Z,12.16
2023-11-14T10:56:22.918Z,12.17
2023-11-14T10:58:53.078Z,12.22
2023-11-14T11:01:24.196Z,12.27
2023-11-14T11:03:57.954Z,12.30
2023-11-14T11:06:27.828Z,12.34
2023-11-14T11:08:57.681Z,12.35
2023-11-14T11:11:35.144Z,12.38
2023-11-14T11:14:10.743Z,12.45
2023-11-14T11:16:54.419Z,12.51
2023-11-14T11:19:27.067Z,12.51
2023-11-14T11:22:00.494Z,12.47
2023-11-14T11:24:40.435Z,12.41
2023-11-14T11:27:22.874Z,12.45
2023-11-14T11:29:57.628Z,12.46
2023-11-14T11:32:34.965Z,12.41
2023-11-14T11:35:24.538Z,12.41
2023-11-14T11:37:58.433Z,12.48
2023-11-14T11:40:32.151Z,12.38
2023-11-14T11:43:22.837Z,12.37
2023-11-14T11:45:55.380Z,12.43
2023-11-14T11:48:37.206Z,12.37
2023-11-14T11:51:22.435Z,12.39
2023-11-14T11:53:52.190Z,12.37
2023-11-14T11:56:40.987Z,12.25
2023-11-14T11:59:10.450Z,12.28
2023-11-14T12:01:54.365Z,12.23
2023-11-14T12:04:25.776Z,12.28
2023-11-14T12:06:58.225Z,12.23
2023-11-14T12:09:29.905Z,12.26
2023-11-14T12:11:59.770Z,12.27
2023-11-14T12:14:31.672Z,12.29
2023-11-14T12:17:04.726Z,12.31
2023-11-14T12:19:34.494Z,12.33
2023-11-14T12:22:06.928Z,12.32
2023-11-14T12:24:36.798Z,12.33
2023-11-14T12:27:06.515Z,12.32
2023-11-14T12:29:36.015Z,12.24
2023-11-14T12:32:07.548Z,12.24
2023-11-14T12:34:39.167Z,12.17
2023-11-14T12:37:14.131Z,12.21
2023-11-14T12:39:43.640Z,12.23
2023-11-14T12:42:15.500Z,12.20
2023-11-14T12:44:45.506Z,12.23
2023-11-14T12:47:14.965Z,12.18
2023-11-14T12:49:52.042Z,12.18
2023-11-14T12:52:26.931Z,12.21
2023-11-14T12:54:56.738Z,12.20
2023-11-14T12:57:26.141Z,12.21
2023-11-14T12:59:56.096Z,12.19
2023-11-14T13:02:25.581Z,12.15
2023-11-14T13:04:55.336Z,12.11
2023-11-14T13:07:24.864Z,12.09
2023-11-14T13:10:02.093Z,12.05
2023-11-14T13:12:31.907Z,12.02
2023-11-14T13:15:01.658Z,11.98
2023-11-14T13:17:31.061Z,11.91
2023-11-14T13:20:00.578Z,11.90
2023-11-14T13:22:33.844Z,11.86
2023-11-14T13:25:08.089Z,11.83
2023-11-14T13:27:37.532Z,11.84
2023-11-14T13:30:07.526Z,11.82
2023-11-14T13:32:37.113Z,11.83
2023-11-14T13:35:08.096Z,11.77
2023-11-14T13:37:37.525Z,11.78
2023-11-14T13:40:09.736Z,11.75
2023-11-14T13:42:43.011Z,11.73
2023-11-14T13:45:15.989Z,11.67
2023-11-14T13:47:47.732Z,11.64
2023-11-14T13:50:17.228Z,11.57
2023-11-14T13:52:47.939Z,11.47
2023-11-14T13:55:19.424Z,11.47
2023-11-14T13:57:49.894Z,11.41
2023-11-14T14:00:19.517Z,11.36
2023-11-14T14:02:49.416Z,11.28
2023-11-14T14:05:19.378Z,11.23
2023-11-14T14:07:48.894Z,11.18
2023-11-14T14:10:18.708Z,11.15
2023-11-14T14:12:48.190Z,11.12
2023-11-14T14:15:18.239Z,11.09
2023-11-14T14:17:48.963Z,11.10
2023-11-14T14:20:19.571Z,11.08
2023-11-14T14:22:56.288Z,11.07
2023-11-14T14:25:29.026Z,11.06
2023-11-14T14:27:58.434Z,10.99
2023-11-14T14:30:27.787Z,10.91
2023-11-14T14:32:57.991Z,10.86
2023-11-14T14:35:28.460Z,10.80
2023-11-14T14:37:58.027Z,10.72
2023-11-14T14:40:27.777Z,10.68
2023-11-14T14:42:57.213Z,10.61
2023-11-14T14:45:26.858Z,10.56
2023-11-14T14:47:56.331Z,10.53
2023-11-14T14:50:27.077Z,10.50
2023-11-14T14:52:56.651Z,10.44
2023-11-14T14:55:26.464Z,10.41
2023-11-14T14:58:01.852Z,10.36
2023-11-14T15:00:33.247Z,10.33
2023-11-14T15:03:03.771Z,10.34
2023-11-14T15:05:37.011Z,10.29
2023-11-14T15:08:08.078Z,10.25
2023-11-14T15:10:37.813Z,10.23
2023-11-14T15:13:10.997Z,10.21
2023-11-14T15:15:45.363Z,10.19
2023-11-14T15:18:14.881Z,10.20
2023-11-14T15:20:47.678Z,10.16
2023-11-14T15:23:21.082Z,10.14
2023-11-14T15:25:51.502Z,10.13
2023-11-14T15:28:21.018Z,10.10
2023-11-14T15:30:50.416Z,10.02
2023-11-14T15:33:20.021Z,9.98
2023-11-14T15:35:50.081Z,9.96
2023-11-14T15:38:19.648Z,9.89
2023-11-14T15:40:49.074Z,9.84
2023-11-14T15:43:18.606Z,9.81
2023-11-14T15:45:49.098Z,9.77
2023-11-14T15:48:20.955Z,9.76
2023-11-14T15:50:53.134Z,9.71
2023-11-14T15:53:22.600Z,9.68
2023-11-14T15:55:52.333Z,9.65
2023-11-14T15:58:21.727Z,9.63
2023-11-14T16:00:51.212Z,9.58
2023-11-14T16:03:21.231Z,9.53
2023-11-14T16:05:51.704Z,9.50
2023-11-14T16:08:21.205Z,9.48
2023-11-14T16:10:50.896Z,9.47
2023-11-14T16:13:22.942Z,9.45
2023-11-14T16:15:53.831Z,9.44
2023-11-14T16:18:23.445Z,9.43
2023-11-14T16:20:53.822Z,9.41
2023-11-14T16:23:23.263Z,9.39
2023-11-14T16:25:52.872Z,9.37
2023-11-14T16:28:22.250Z,9.35
2023-11-14T16:30:51.738Z,9.34
2023-11-14T16:33:21.405Z,9.31
2023-11-14T16:35:51.387Z,9.31
2023-11-14T16:38:20.794Z,9.27
2023-11-14T16:40:50.626Z,9.26
2023-11-14T16:43:20.026Z,9.21
2023-11-14T16:45:49.669Z,9.15
2023-11-14T16:48:19.948Z,9.10
2023-11-14T16:50:49.454Z,9.03
2023-11-14T16:53:19.556Z,9.01
2023-11-14T16:55:49.370Z,8.96
2023-11-14T16:58:18.798Z,8.93
2023-11-14T17:00:48.791Z,8.89
2023-11-14T17:03:18.403Z,8.88
2023-11-14T17:05:48.116Z,8.85
2023-11-14T17:08:17.650Z,8.81
2023-11-14T17:10:47.074Z,8.80
2023-11-14T17:13:16.532Z,8.75
2023-11-14T17:15:46.221Z,8.72
2023-11-14T17:18:15.719Z,8.70
2023-11-14T17:20:45.166Z,8.67
2023-11-14T17:23:14.646Z,8.67
2023-11-14T17:25:45.204Z,8.65
2023-11-14T17:28:15.692Z,8.65
2023-11-14T17:30:45.176Z,8.64
2023-11-14T17:33:15.132Z,8.63
2023-11-14T17:35:45.524Z,8.63
2023-11-14T17:38:15.228Z,8.62
2023-11-14T17:40:44.715Z,8.64
2023-11-14T17:43:14.096Z,8.65
2023-11-14T17:45:43.904Z,8.66
2023-11-14T17:48:13.410Z,8.67
2023-11-14T17:50:43.274Z,8.68
2023-11-14T17:53:12.882Z,8.69
2023-11-14T17:55:42.685Z,8.69
2023-11-14T17:58:12.241Z,8.67
2023-11-14T18:00:41.937Z,8.67
2023-11-14T18:03:11.548Z,8.69
2023-11-14T18:05:41.797Z,8.68
2023-11-14T18:08:11.691Z,8.71
2023-11-14T18:10:41.978Z,8.68
2023-11-14T18:13:15.955Z,8.71
2023-11-14T18:15:45.786Z,8.72
2023-11-14T18:18:15.287Z,8.72
2023-11-14T18:20:45.706Z,8.76
2023-11-14T18:23:15.089Z,8.75
2023-11-14T18:25:44.698Z,8.77
2023-11-14T18:28:15.518Z,8.76
2023-11-14T18:30:45.079Z,8.77
2023-11-14T18:33:14.505Z,8.78
2023-11-14T18:35:47.280Z,8.78
2023-11-14T18:38:16.686Z,8.78
2023-11-14T18:40:46.136Z,8.76
2023-11-14T18:43:15.691Z,8.75
2023-11-14T18:45:45.640Z,8.76
2023-11-14T18:48:15.158Z,8.73
2023-11-14T18:50:46.420Z,8.73
2023-11-14T18:53:19.873Z,8.75
2023-11-14T18:55:49.856Z,8.79
2023-11-14T18:58:19.961Z,8.77
2023-11-14T19:00:49.772Z,8.77
2023-11-14T19:03:19.354Z,8.77
2023-11-14T19:05:49.160Z,8.78
2023-11-14T19:08:18.656Z,8.78
2023-11-14T19:10:48.114Z,8.78
2023-11-14T19:13:17.582Z,8.80
2023-11-14T19:15:47.631Z,8.80
2023-11-14T19:18:19.229Z,8.81
2023-11-14T19:21:18.572Z,8.84
2023-11-14T19:23:43.977Z,8.95
2023-11-14T19:26:14.962Z,8.95
2023-11-14T19:28:44.929Z,8.92
2023-11-14T19:31:14.616Z,8.92
2023-11-14T19:33:46.554Z,8.91
2023-11-14T19:36:16.232Z,8.89
2023-11-14T19:38:45.743Z,8.89
2023-11-14T19:41:15.276Z,8.89
2023-11-14T19:43:46.430Z,8.88
2023-11-14T19:46:16.486Z,8.88
2023-11-14T19:48:45.941Z,8.83
2023-11-14T19:51:17.280Z,8.81
2023-11-14T19:53:46.687Z,8.78
2023-11-14T19:56:16.600Z,8.78
2023-11-14T19:58:46.011Z,8.77
2023-11-14T20:01:17.006Z,8.75
2023-11-14T20:03:46.606Z,8.75
2023-11-14T20:06:16.937Z,8.75
2023-11-14T20:08:46.417Z,8.75
2023-11-14T20:11:15.998Z,8.76
2023-11-14T20:13:46.502Z,8.75
2023-11-14T20:16:16.360Z,8.74
2023-11-14T20:18:47.163Z,8.74
2023-11-14T20:21:21.851Z,8.74
2023-11-14T20:23:57.843Z,8.76
2023-11-14T20:26:29.061Z,8.76
2023-11-14T20:28:58.497Z,8.76
2023-11-14T20:31:27.971Z,8.77
2023-11-14T20:33:57.644Z,8.75
2023-11-14T20:36:28.331Z,8.76
2023-11-14T20:38:58.084Z,8.75
2023-11-14T20:41:28.521Z,8.77
2023-11-14T20:43:58.595Z,8.76
2023-11-14T20:46:28.267Z,8.77
2023-11-14T20:48:57.690Z,8.79
2023-11-14T20:51:28.094Z,8.76
2023-11-14T20:53:59.633Z,8.77
2023-11-14T20:56:31.217Z,8.81
2023-11-14T20:59:00.804Z,8.80
2023-11-14T21:01:30.334Z,8.78
2023-11-14T21:03:59.825Z,8.75
2023-11-14T21:06:30.277Z,8.71
2023-11-14T21:09:02.858Z,8.67
2023-11-14T21:11:35.283Z,8.65
2023-11-14T21:14:04.752Z,8.63
2023-11-14T21:16:39.509Z,8.61
2023-11-14T21:19:09.048Z,8.65
2023-11-14T21:21:46.277Z,8.60
2023-11-14T21:24:15.681Z,8.63
2023-11-14T21:26:45.083Z,8.60
2023-11-14T21:29:17.302Z,8.57
2023-11-14T21:31:48.092Z,8.59
2023-11-14T21:34:17.612Z,8.61
2023-11-14T21:36:47.026Z,8.62
2023-11-14T21:39:17.524Z,8.64
2023-11-14T21:41:46.980Z,8.67
2023-11-14T21:44:16.568Z,8.67
2023-11-14T21:46:46.023Z,8.67
2023-11-14T21:49:15.397Z,8.67
2023-11-14T21:51:44.745Z,8.68
2023-11-14T21:54:14.142Z,8.69
2023-11-14T21:56:43.564Z,8.69
2023-11-14T21:59:13.069Z,8.70
2023-11-14T22:01:42.449Z,8.69
2023-11-14T22:04:12.077Z,8.68
2023-11-14T22:06:42.171Z,8.63
2023-11-14T22:09:12.648Z,8.57
2023-11-14T22:11:42.789Z,8.53
2023-11-14T22:14:13.341Z,8.47
2023-11-14T22:16:42.873Z,8.45
2023-11-14T22:19:12.277Z,8.40
2023-11-14T22:21:41.751Z,8.38
2023-11-14T22:24:11.683Z,8.39
2023-11-14T22:26:41.094Z,8.39
2023-11-14T22:29:10.484Z,8.39
2023-11-14T22:31:39.909Z,8.41
2023-11-14T22:34:09.333Z,8.42
2023-11-14T22:36:40.147Z,8.42
2023-11-14T22:39:09.557Z,8.43
2023-11-14T22:41:39.115Z,8.43
2023-11-14T22:44:08.519Z,8.41
2023-11-14T22:46:38.407Z,8.41
2023-11-14T22:49:07.792Z,8.42
2023-11-14T22:51:37.629Z,8.43
2023-11-14T22:54:07.101Z,8.42
2023-11-14T22:56:36.728Z,8.44
2023-11-14T22:59:07.262Z,8.46
2023-11-14T23:01:38.114Z,8.46
2023-11-14T23:04:10.497Z,8.46
2023-11-14T23:06:40.847Z,8.48
2023-11-14T23:09:16.406Z,8.49
2023-11-14T23:11:56.863Z,8.51
2023-11-14T23:14:27.369Z,8.56
2023-11-14T23:16:56.763Z,8.54
2023-11-14T23:19:28.290Z,8.51
2023-11-14T23:21:59.974Z,8.51
2023-11-14T23:24:30.828Z,8.51
2023-11-14T23:27:00.577Z,8.51
2023-11-14T23:29:30.036Z,8.50
2023-11-14T23:31:59.543Z,8.51
2023-11-14T23:34:29.006Z,8.53
2023-11-14T23:36:58.379Z,8.54
2023-11-14T23:39:28.013Z,8.53
2023-11-14T23:41:58.031Z,8.52
2023-11-14T23:44:27.682Z,8.50
2023-11-14T23:46:57.055Z,8.50
2023-11-14T23:49:26.437Z,8.46
2023-11-14T23:51:55.853Z,8.46
2023-11-14T23:54:25.354Z,8.42
2023-11-14T23:56:55.055Z,8.38
2023-11-14T23:59:24.981Z,8.37
